Flight Track Log - Related Links

Times and Time Zones

All times are in EDT time to prevent confusion due to time zone crossing. See the SWA3960 flight status page for this flight to view local times or setup timezone preferences in your user account.

Time Position Orientation Groundspeed Altitude Reporting Facility
EDT Latitude Longitude Course Direction KTS MPH feet Rate Location/Type
Tue 10:39:56 PM 41.7740 -87.7670 233° Southwest 146 168 1,400  Level FlightAware
Tue 10:40:16 PM 41.7670 -87.7840 241° Southwest 175 201 1,900 1,469 Climbing FlightAware
Tue 10:40:45 PM 41.7570 -87.8180 248° West 212 244 2,600 1,821 Climbing FlightAware
Tue 10:41:12 PM 41.7470 -87.8530 249° West 222 255 3,600 1,269 Climbing FlightAware
Tue 10:41:37 PM 41.7470 -87.8860 270° West 221 254 3,700 111 Climbing FlightAware
Tue 10:42:06 PM 41.7470 -87.9260 270° West 219 252 3,700 105 Level FlightAware
Tue 10:42:34 PM 41.7460 -87.9640 268° West 221 254 3,800 1,071 Climbing FlightAware
Tue 10:43:02 PM 41.7460 -88.0030 270° West 225 259 4,700 2,182 Climbing FlightAware
Tue 10:43:18 PM 41.7450 -88.0260 267° West 230 265 5,400 1,395 Climbing FlightAware
Tue 10:43:45 PM 41.7440 -88.0640 268° West 233 268 5,700 643 Climbing FlightAware
Tue 10:44:14 PM 41.7430 -88.1060 268° West 237 273 6,000 1,158 Climbing FlightAware
Tue 10:44:42 PM 41.7410 -88.1510 267° West 273 314 6,800 2,182 Climbing FlightAware
Tue 10:45:09 PM 41.7400 -88.1970 268° West 290 334 8,000 3,107 Climbing FlightAware
Tue 10:45:38 PM 41.7380 -88.2510 267° West 297 342 9,700 3,304 Climbing FlightAware
Tue 10:46:18 PM 41.7360 -88.3250 268° West 308 354 11,800 3,071 Climbing FlightAware
Tue 10:47:02 PM 41.7360 -88.4080 270° West 320 368 14,000 2,214 Climbing FlightAware
Tue 10:47:42 PM 41.7350 -88.4950 269° West 365 420 14,900 2,071 Climbing FlightAware
Tue 10:48:26 PM 41.7350 -88.5940 270° West 375 432 16,900 2,643 Climbing FlightAware
Tue 10:49:06 PM 41.7340 -88.6900 269° West 388 447 18,600 2,475 Climbing FlightAware
Tue 10:49:46 PM 41.7330 -88.7860 269° West 399 459 20,200 2,357 Climbing FlightAware
Tue 10:50:30 PM 41.7320 -88.8950 269° West 411 473 21,900 2,386 Climbing FlightAware
Tue 10:51:14 PM 41.7300 -89.0100 269° West 418 481 23,700 2,329 Climbing FlightAware
Tue 10:51:55 PM 41.7270 -89.1160 268° West 425 489 25,200 2,000 Climbing FlightAware
Tue 10:52:38 PM 41.7230 -89.2300 267° West 437 503 26,500 1,786 Climbing FlightAware
Tue 10:53:19 PM 41.7190 -89.3400 267° West 443 510 27,700 1,786 Climbing FlightAware
Tue 10:54:02 PM 41.7150 -89.4570 267° West 446 513 29,000 1,786 Climbing FlightAware
Tue 10:54:43 PM 41.7110 -89.5730 267° West 452 520 30,200 1,800 Climbing FlightAware
Tue 10:55:12 PM 41.7070 -89.6560 266° West 451 519 31,100 1,765 Climbing FlightAware
Tue 10:55:51 PM 41.7030 -89.7620 267° West 453 521 32,200 1,571 Climbing FlightAware
Tue 10:56:36 PM 41.6990 -89.8870 268° West 456 525 33,300 1,500 Climbing FlightAware
Tue 10:57:15 PM 41.6940 -89.9980 267° West 456 525 34,300 1,571 Climbing FlightAware
Tue 10:58:00 PM 41.6890 -90.1250 267° West 451 519 35,500 1,200 Climbing FlightAware
Tue 10:58:40 PM 41.6840 -90.2370 267° West 449 517 36,000 375 Climbing FlightAware
Tue 10:59:20 PM 41.6800 -90.3460 267° West 447 514 36,000  Level FlightAware
Tue 10:59:56 PM 41.6750 -90.4450 266° West 445 512 36,000  Level FlightAware
Tue 11:00:40 PM 41.6700 -90.5660 267° West 442 509 36,000  Level FlightAware
Tue 11:01:21 PM 41.6650 -90.6760 267° West 441 507 36,000  Level FlightAware
Tue 11:02:05 PM 41.6590 -90.7960 266° West 440 506 36,000  Level FlightAware
Tue 11:02:44 PM 41.6540 -90.9020 266° West 439 505 36,000  Level FlightAware
Tue 11:03:28 PM 41.6480 -91.0200 266° West 439 505 36,000  Level FlightAware
Tue 11:04:09 PM 41.6430 -91.1300 267° West 441 507 36,000  Level FlightAware
Tue 11:04:51 PM 41.6370 -91.2420 266° West 441 507 36,000  Level FlightAware
Tue 11:05:30 PM 41.6310 -91.3540 266° West 441 507 36,000  Level FlightAware
Tue 11:06:17 PM 41.6250 -91.4800 266° West 442 509 36,000  Level FlightAware
Tue 11:06:55 PM 41.6190 -91.5800 265° West 444 511 36,000  Level FlightAware
Tue 11:07:39 PM 41.6120 -91.7040 266° West 444 511 36,000  Level FlightAware
Tue 11:08:20 PM 41.6060 -91.8140 266° West 444 511 36,000  Level FlightAware
Tue 11:08:53 PM 41.6010 -91.9040 266° West 444 511 36,000  Level FlightAware
Tue 11:09:40 PM 41.5940 -92.0290 266° West 444 511 36,000  Level FlightAware
Tue 11:10:30 PM 41.5860 -92.1690 266° West 442 509 36,000  Level FlightAware
Tue 11:11:02 PM 41.5810 -92.2550 266° West 441 507 36,000  Level FlightAware
Tue 11:11:54 PM 41.5720 -92.3970 265° West 440 506 36,000  Level FlightAware
Tue 11:12:33 PM 41.5660 -92.4960 265° West 440 506 36,000  Level FlightAware
Tue 11:13:17 PM 41.5580 -92.6190 265° West 439 505 36,000  Level FlightAware
Tue 11:13:57 PM 41.5510 -92.7290 265° West 438 504 36,000  Level FlightAware
Tue 11:14:42 PM 41.5430 -92.8480 265° West 437 503 36,000  Level FlightAware
Tue 11:15:18 PM 41.5370 -92.9480 265° West 437 503 36,000  Level FlightAware
Tue 11:15:57 PM 41.5300 -93.0490 265° West 436 502 36,000  Level FlightAware
Tue 11:16:38 PM 41.5230 -93.1590 265° West 437 503 36,000 -74 Level FlightAware
Tue 11:17:18 PM 41.5150 -93.2650 264° West 437 503 35,900 -1,610 Descending FlightAware
Tue 11:18:00 PM 41.5080 -93.3780 265° West 448 516 33,800 -2,690 Descending FlightAware
Tue 11:18:45 PM 41.4990 -93.5020 265° West 461 531 32,000 -1,286 Descending FlightAware
Tue 11:19:24 PM 41.4910 -93.6010 264° West 461 531 32,000 -1,244 Level FlightAware
Tue 11:20:07 PM 41.4820 -93.7380 265° West 464 534 30,300 -2,125 Descending FlightAware
Tue 11:21:00 PM 41.4710 -93.8800 264° West 467 537 28,600 -3,652 Descending FlightAware
Tue 11:21:39 PM 41.4620 -94.0040 265° West 467 537 24,700 -2,659 Descending FlightAware
Tue 11:22:28 PM 41.4530 -94.1230 264° West 467 537 24,700  Level FlightAware
Tue 11:23:04 PM 41.4460 -94.2110 264° West 467 537 24,700  Level FlightAware
Tue 11:23:52 PM 41.4360 -94.3280 264° West 467 537 24,700  Level FlightAware
Tue 11:24:28 PM 41.4290 -94.4160 264° West 467 537 24,700  Level FlightAware
Tue 11:25:16 PM 41.4200 -94.5330 264° West 467 537 24,700 -5,857 Level FlightAware
Tue 11:25:52 PM 41.4128 -94.6283 264° West 366 421 16,500 -5,327 Descending Minneapolis Center
Tue 11:26:54 PM 41.4003 -94.7553 263° West 352 405 16,000 -263 Descending Minneapolis Center
Tue 11:27:46 PM 41.4061 -94.8833 274° West 350 403 16,000  Level Minneapolis Center
Tue 11:28:17 PM 41.3989 -94.9539 262° West 355 409 16,000 -429 Level Minneapolis Center
Tue 11:28:56 PM 41.3825 -95.0161 251° West 355 409 15,500 -1,366 Descending Minneapolis Center
Tue 11:29:58 PM 41.3794 -95.1464 268° West 355 409 13,700 -1,530 Descending Minneapolis Center
Tue 11:35:40 PM 41.4030 -95.7590 268° West 208 239 5,200 -1,468 Descending FlightAware
Tue 11:36:10 PM 41.4160 -95.7940 296° West 195 224 4,600 -1,200 Descending FlightAware
Tue 11:36:35 PM 41.4250 -95.8170 298° West 193 222 4,100 -1,371 Descending FlightAware
Tue 11:36:45 PM 41.4270 -95.8310 281° West 186 214 3,800 -692 Descending FlightAware
Tue 11:37:27 PM 41.4230 -95.8700 262° West 186 214 3,500 -1,200 Descending FlightAware
Tue 11:37:40 PM 41.4080 -95.8830 213° Southwest 170 196 2,700 -1,818 Descending FlightAware
Tue 11:38:00 PM 41.3980 -95.8930 217° Southwest 156 180 2,500 -800 Descending FlightAware
Tue 11:38:10 PM 41.3900 -95.8940 185° South 152 175 2,300 -900 Descending FlightAware
Tue 11:38:40 PM 41.3710 -95.8940 180° South 143 165 1,900 -873 Descending FlightAware
Tue 11:39:05 PM 41.3530 -95.8940 180° South 141 162 1,500 -471 Descending FlightAware
Tue 11:39:31 PM 41.3380 -95.8950 183° South 141 162 1,500 -358 Level FlightAware
Tue 11:40:12 PM 41.3147 -95.8942 183° South 146 168 1,100 -585 Descending Minneapolis Center
Tue 11:42:00 PM 41.3000 -95.8833 187° South  Level FlightAware

Login

Don't have an account? Register now (free) for customized features, flight alerts, and more!